createdAt,value
2023-02-22T00:01:08.458Z,4.70
2023-02-22T00:03:39.735Z,4.68
2023-02-22T00:06:19.307Z,4.60
2023-02-22T00:08:49.879Z,4.60
2023-02-22T00:11:20.813Z,4.60
2023-02-22T00:13:50.826Z,4.50
2023-02-22T00:16:23.968Z,4.50
2023-02-22T00:18:53.799Z,4.50
2023-02-22T00:21:22.905Z,4.50
2023-02-22T00:23:54.862Z,4.40
2023-02-22T00:26:23.645Z,4.40
2023-02-22T00:28:54.519Z,4.32
2023-02-22T00:31:23.188Z,4.30
2023-02-22T00:33:51.889Z,4.20
2023-02-22T00:36:20.367Z,4.20
2023-02-22T00:38:49.129Z,4.20
2023-02-22T00:41:18.041Z,4.20
2023-02-22T00:43:49.108Z,4.10
2023-02-22T00:46:17.697Z,4.10
2023-02-22T00:48:47.361Z,4.00
2023-02-22T00:51:16.169Z,3.90
2023-02-22T00:53:45.684Z,3.86
2023-02-22T00:56:14.672Z,3.80
2023-02-22T00:58:43.232Z,3.70
2023-02-22T01:01:11.743Z,3.70
2023-02-22T01:03:41.603Z,3.70
2023-02-22T01:06:10.521Z,3.60
2023-02-22T01:08:39.219Z,3.60
2023-02-22T01:11:07.792Z,3.60
2023-02-22T01:13:36.898Z,3.50
2023-02-22T01:16:08.581Z,3.50
2023-02-22T01:18:37.778Z,3.50
2023-02-22T01:21:06.955Z,3.50
2023-02-22T01:23:37.595Z,3.50
2023-02-22T01:26:06.568Z,3.40
2023-02-22T01:28:35.540Z,3.40
2023-02-22T01:31:05.301Z,3.40
2023-02-22T01:33:34.268Z,3.40
2023-02-22T01:36:03.976Z,3.40
2023-02-22T01:38:32.560Z,3.40
2023-02-22T01:41:02.068Z,3.30
2023-02-22T01:43:33.330Z,3.26
2023-02-22T01:46:28.032Z,3.20
2023-02-22T01:48:56.489Z,3.20
2023-02-22T01:51:39.172Z,3.10
2023-02-22T01:54:20.388Z,3.10
2023-02-22T01:57:03.418Z,3.20
2023-02-22T01:59:36.707Z,3.20
2023-02-22T02:02:07.091Z,3.20
2023-02-22T02:04:36.770Z,3.20
2023-02-22T02:07:08.383Z,3.10
2023-02-22T02:10:08.211Z,3.10
2023-02-22T02:12:37.512Z,3.10
2023-02-22T02:15:33.850Z,3.10
2023-02-22T02:18:11.127Z,3.04
2023-02-22T02:20:53.239Z,3.00
2023-02-22T02:23:50.716Z,3.00
2023-02-22T02:26:53.796Z,3.00
2023-02-22T02:30:14.422Z,3.00
2023-02-22T02:32:58.683Z,2.90
2023-02-22T02:35:38.704Z,2.90
2023-02-22T02:38:44.812Z,2.90
2023-02-22T02:41:31.275Z,2.80
2023-02-22T02:44:18.806Z,2.80
2023-02-22T02:47:02.991Z,2.70
2023-02-22T02:49:42.497Z,2.70
2023-02-22T02:52:13.457Z,2.70
2023-02-22T02:54:43.207Z,2.60
2023-02-22T02:57:11.835Z,2.60
2023-02-22T02:59:40.619Z,2.60
2023-02-22T03:02:47.911Z,2.60
2023-02-22T03:05:36.675Z,2.60
2023-02-22T03:08:24.932Z,2.52
2023-02-22T03:10:59.343Z,2.50
2023-02-22T03:14:27.633Z,2.50
2023-02-22T03:17:12.488Z,2.50
2023-02-22T03:19:51.514Z,2.50
2023-02-22T03:22:28.257Z,2.50
2023-02-22T03:25:08.559Z,2.48
2023-02-22T03:27:53.623Z,2.42
2023-02-22T03:30:36.185Z,2.50
2023-02-22T03:33:14.845Z,2.40
2023-02-22T03:35:51.258Z,2.40
2023-02-22T03:38:21.347Z,2.40
2023-02-22T03:40:54.696Z,2.40
2023-02-22T03:43:31.317Z,2.30
2023-02-22T03:46:04.111Z,2.30
2023-02-22T03:48:38.420Z,2.20
2023-02-22T03:51:09.254Z,2.20
2023-02-22T03:53:38.049Z,2.20
2023-02-22T03:56:10.994Z,2.20
2023-02-22T03:58:44.247Z,2.20
2023-02-22T04:01:14.084Z,2.20
2023-02-22T04:03:43.460Z,2.20
2023-02-22T04:10:11.436Z,2.20
2023-02-22T04:12:40.436Z,2.20
2023-02-22T04:15:13.781Z,2.20
2023-02-22T04:17:43.655Z,2.18
2023-02-22T04:20:20.183Z,2.10
2023-02-22T04:23:02.221Z,2.00
2023-02-22T04:25:31.873Z,2.00
2023-02-22T04:28:06.991Z,2.00
2023-02-22T04:30:41.157Z,2.00
2023-02-22T04:33:14.788Z,2.00
2023-02-22T04:35:43.474Z,2.00
2023-02-22T04:38:12.183Z,2.08
2023-02-22T04:40:42.898Z,2.10
2023-02-22T04:43:11.780Z,2.10
2023-02-22T04:45:41.797Z,2.10
2023-02-22T04:48:11.202Z,2.00
2023-02-22T04:50:40.913Z,2.00
2023-02-22T04:53:09.805Z,2.00
2023-02-22T04:55:39.821Z,2.00
2023-02-22T04:58:09.540Z,2.00
2023-02-22T05:00:39.143Z,2.00
2023-02-22T05:03:09.166Z,2.00
2023-02-22T05:05:37.848Z,2.00
2023-02-22T05:08:06.574Z,2.00
2023-02-22T05:10:35.136Z,2.00
2023-02-22T05:13:04.257Z,1.90
2023-02-22T05:15:33.110Z,1.90
2023-02-22T05:18:02.002Z,1.90
2023-02-22T05:20:34.908Z,1.90
2023-02-22T05:23:05.854Z,1.90
2023-02-22T05:25:34.413Z,2.00
2023-02-22T05:28:11.078Z,2.00
2023-02-22T05:30:40.939Z,2.00
2023-02-22T05:33:10.494Z,1.98
2023-02-22T05:35:39.095Z,1.90
2023-02-22T05:38:08.332Z,1.90
2023-02-22T05:40:36.871Z,1.90
2023-02-22T05:43:05.560Z,1.90
2023-02-22T05:45:34.648Z,1.90
2023-02-22T05:48:03.752Z,1.90
2023-02-22T05:50:33.385Z,1.90
2023-02-22T05:53:02.150Z,1.80
2023-02-22T05:55:30.734Z,1.80
2023-02-22T05:57:59.216Z,1.78
2023-02-22T06:00:31.327Z,1.70
2023-02-22T06:03:07.395Z,1.70
2023-02-22T06:05:37.498Z,1.70
2023-02-22T06:08:08.088Z,1.70
2023-02-22T06:10:36.986Z,1.70
2023-02-22T06:13:07.001Z,1.70
2023-02-22T06:15:35.795Z,1.70
2023-02-22T06:18:04.883Z,1.70
2023-02-22T06:20:35.315Z,1.76
2023-02-22T06:23:04.102Z,1.72
2023-02-22T06:25:32.892Z,1.70
2023-02-22T06:28:02.003Z,1.72
2023-02-22T06:30:31.499Z,1.70
2023-02-22T06:33:00.100Z,1.70
2023-02-22T06:35:28.778Z,1.80
2023-02-22T06:37:57.556Z,1.90
2023-02-22T06:40:29.872Z,1.96
2023-02-22T06:43:00.076Z,2.00
2023-02-22T06:45:28.911Z,2.10
2023-02-22T06:47:57.742Z,2.20
2023-02-22T06:50:30.964Z,2.30
2023-02-22T06:52:59.816Z,2.40
2023-02-22T06:55:32.722Z,2.40
2023-02-22T06:58:03.021Z,2.50
2023-02-22T07:00:33.034Z,2.60
2023-02-22T07:03:04.130Z,2.70
2023-02-22T07:05:32.771Z,2.80
2023-02-22T07:08:07.880Z,2.98
2023-02-22T07:10:38.132Z,3.20
2023-02-22T07:13:09.080Z,3.40
2023-02-22T07:15:37.761Z,3.60
2023-02-22T07:18:06.359Z,3.80
2023-02-22T07:20:35.136Z,3.96
2023-02-22T07:23:05.526Z,4.10
2023-02-22T07:25:34.861Z,4.20
2023-02-22T07:28:03.448Z,4.30
2023-02-22T07:30:36.923Z,4.40
2023-02-22T07:33:12.781Z,4.40
2023-02-22T07:35:48.611Z,4.50
2023-02-22T07:38:20.003Z,4.50
2023-02-22T07:40:49.203Z,4.70
2023-02-22T07:43:27.037Z,4.90
2023-02-22T07:45:59.224Z,5.12
2023-02-22T07:48:30.534Z,5.42
2023-02-22T07:51:00.176Z,5.66
2023-02-22T07:53:33.606Z,5.96
2023-02-22T07:56:05.500Z,6.30
2023-02-22T07:58:34.075Z,6.68
2023-02-22T08:01:02.770Z,7.12
2023-02-22T08:03:36.942Z,7.64
2023-02-22T08:06:08.198Z,8.14
2023-02-22T08:08:36.924Z,8.72
2023-02-22T08:11:06.017Z,9.28
2023-02-22T08:13:37.332Z,9.76
2023-02-22T08:16:06.025Z,10.00
2023-02-22T08:18:34.534Z,10.18
2023-02-22T08:21:03.022Z,10.68
2023-02-22T08:23:31.868Z,11.20
2023-02-22T08:26:10.443Z,11.46
2023-02-22T08:28:38.903Z,11.96
2023-02-22T08:31:09.030Z,12.20
2023-02-22T08:33:37.730Z,12.40
2023-02-22T08:36:06.574Z,12.78
2023-02-22T08:38:35.187Z,13.10
2023-02-22T08:41:03.916Z,13.42
2023-02-22T08:43:32.455Z,13.82
2023-02-22T08:46:01.334Z,14.10
2023-02-22T08:48:30.036Z,14.50
2023-02-22T08:50:59.160Z,14.80
2023-02-22T08:53:27.824Z,14.98
2023-02-22T08:55:56.397Z,15.22
2023-02-22T08:58:24.983Z,15.58
2023-02-22T09:00:54.282Z,15.90
2023-02-22T09:03:22.903Z,16.20
2023-02-22T09:05:51.704Z,16.40
2023-02-22T09:08:21.068Z,16.50
2023-02-22T09:10:51.160Z,16.70
2023-02-22T09:13:19.870Z,16.80
2023-02-22T09:15:48.409Z,16.70
2023-02-22T09:18:18.327Z,16.80
2023-02-22T09:20:46.953Z,17.00
2023-02-22T09:23:15.859Z,17.30
2023-02-22T09:25:44.636Z,17.50
2023-02-22T09:28:13.731Z,17.50
2023-02-22T09:30:42.869Z,17.62
2023-02-22T09:33:17.547Z,17.80
2023-02-22T09:35:50.024Z,17.90
2023-02-22T09:38:24.953Z,17.70
2023-02-22T09:41:15.903Z,17.40
2023-02-22T09:44:08.721Z,17.50
2023-02-22T09:46:46.077Z,17.50
2023-02-22T09:49:33.034Z,17.64
2023-02-22T09:52:36.731Z,17.88
2023-02-22T09:55:28.994Z,17.70
2023-02-22T09:58:01.949Z,17.80
2023-02-22T10:00:38.059Z,17.70
2023-02-22T10:03:34.815Z,17.80
2023-02-22T10:06:12.366Z,18.00
2023-02-22T10:08:42.281Z,17.92
2023-02-22T10:11:44.864Z,17.68
2023-02-22T10:14:43.594Z,17.20
2023-02-22T10:17:37.634Z,17.30
2023-02-22T10:20:53.835Z,17.28
2023-02-22T10:23:36.799Z,17.50
2023-02-22T10:26:22.602Z,16.86
2023-02-22T10:29:18.988Z,16.30
2023-02-22T10:31:56.370Z,16.00
2023-02-22T10:34:39.911Z,15.68
2023-02-22T10:37:32.473Z,15.50
2023-02-22T10:40:17.632Z,15.12
2023-02-22T10:42:47.659Z,15.00
2023-02-22T10:45:27.089Z,14.90
2023-02-22T10:47:59.841Z,14.64
2023-02-22T10:50:31.809Z,14.50
2023-02-22T10:53:00.528Z,14.74
2023-02-22T10:55:29.108Z,14.98
2023-02-22T10:58:07.844Z,14.90
2023-02-22T11:00:40.083Z,14.90
2023-02-22T11:03:21.082Z,14.96
2023-02-22T11:05:51.001Z,14.80
2023-02-22T11:08:22.250Z,14.80
2023-02-22T11:11:25.611Z,14.80
2023-02-22T11:13:59.816Z,15.00
2023-02-22T11:16:36.770Z,15.00
2023-02-22T11:19:24.189Z,14.90
2023-02-22T11:21:57.902Z,14.90
2023-02-22T11:24:34.608Z,14.74
2023-02-22T11:27:09.269Z,14.70
2023-02-22T11:29:38.778Z,14.60
2023-02-22T11:32:21.581Z,14.48
2023-02-22T11:35:03.464Z,14.20
2023-02-22T11:37:37.501Z,14.10
2023-02-22T11:40:13.509Z,14.06
2023-02-22T11:42:42.158Z,14.04
2023-02-22T11:45:27.849Z,14.00
2023-02-22T11:48:02.605Z,13.70
2023-02-22T11:50:41.584Z,13.44
2023-02-22T11:53:34.548Z,13.24
2023-02-22T11:56:46.030Z,13.00
2023-02-22T11:59:41.066Z,12.90
2023-02-22T12:02:56.585Z,12.90
2023-02-22T12:06:01.257Z,12.80
2023-02-22T12:09:25.662Z,12.80
2023-02-22T12:12:15.320Z,12.86
2023-02-22T12:15:08.905Z,13.00
2023-02-22T12:17:59.994Z,13.00
2023-02-22T12:20:59.209Z,13.00
2023-02-22T12:23:52.060Z,13.06
2023-02-22T12:26:42.694Z,13.10
2023-02-22T12:29:41.964Z,13.10
2023-02-22T12:32:41.979Z,13.10
2023-02-22T12:35:19.482Z,13.10
2023-02-22T12:38:05.180Z,13.10
2023-02-22T12:40:42.768Z,13.02
2023-02-22T12:43:17.539Z,13.00
2023-02-22T12:46:07.153Z,13.00
2023-02-22T12:49:10.678Z,12.90
2023-02-22T12:51:46.533Z,12.80
2023-02-22T12:54:38.362Z,12.78
2023-02-22T12:57:45.246Z,12.80
2023-02-22T13:00:26.628Z,12.90
2023-02-22T13:03:18.152Z,12.80
2023-02-22T13:05:56.976Z,13.02
2023-02-22T13:08:43.071Z,13.22
2023-02-22T13:11:33.262Z,13.30
2023-02-22T13:14:33.281Z,13.30
2023-02-22T13:17:08.119Z,13.40
2023-02-22T13:20:15.343Z,13.20
2023-02-22T13:23:01.192Z,13.02
2023-02-22T13:25:43.601Z,13.00
2023-02-22T13:28:49.051Z,13.00
2023-02-22T13:31:53.474Z,12.90
2023-02-22T13:34:45.817Z,13.00
2023-02-22T13:37:30.679Z,13.30
2023-02-22T13:40:46.473Z,13.40
2023-02-22T13:44:17.217Z,13.60
2023-02-22T13:47:26.561Z,13.70
2023-02-22T13:50:24.021Z,13.46
2023-02-22T13:52:55.675Z,13.38
2023-02-22T13:55:34.649Z,13.40
2023-02-22T13:58:10.016Z,13.40
2023-02-22T14:00:53.286Z,13.38
2023-02-22T14:03:41.363Z,13.42
2023-02-22T14:06:38.190Z,13.44
2023-02-22T14:09:20.361Z,13.20
2023-02-22T14:11:54.366Z,13.00
2023-02-22T14:14:25.038Z,12.98
2023-02-22T14:17:22.366Z,12.80
2023-02-22T14:20:04.671Z,12.72
2023-02-22T14:22:33.552Z,12.70
2023-02-22T14:25:02.353Z,12.70
2023-02-22T14:27:42.713Z,12.70
2023-02-22T14:30:43.700Z,12.60
2023-02-22T14:34:17.680Z,12.42
2023-02-22T14:36:56.587Z,12.30
2023-02-22T14:39:32.374Z,12.30
2023-02-22T14:42:12.716Z,12.30
2023-02-22T14:45:25.641Z,12.22
2023-02-22T14:48:01.408Z,12.22
2023-02-22T14:50:44.428Z,12.20
2023-02-22T14:53:13.128Z,12.10
2023-02-22T14:55:56.943Z,12.10
2023-02-22T14:58:45.495Z,12.00
2023-02-22T15:01:49.121Z,12.00
2023-02-22T15:04:29.020Z,11.90
2023-02-22T15:07:01.635Z,11.86
2023-02-22T15:09:36.870Z,11.80
2023-02-22T15:12:05.472Z,11.80
2023-02-22T15:14:40.833Z,11.80
2023-02-22T15:17:25.094Z,11.78
2023-02-22T15:19:55.242Z,11.70
2023-02-22T15:22:30.188Z,11.70
2023-02-22T15:25:06.398Z,11.70
2023-02-22T15:27:40.896Z,11.66
2023-02-22T15:30:26.781Z,11.60
2023-02-22T15:33:04.230Z,11.50
2023-02-22T15:35:33.975Z,11.42
2023-02-22T15:38:10.799Z,11.30
2023-02-22T15:40:43.456Z,11.30
2023-02-22T15:43:25.715Z,11.20
2023-02-22T15:45:59.408Z,11.10
2023-02-22T15:48:31.368Z,11.10
2023-02-22T15:51:04.701Z,11.00
2023-02-22T15:53:48.367Z,10.90
2023-02-22T15:56:25.237Z,10.90
2023-02-22T15:59:20.906Z,10.76
2023-02-22T16:01:53.428Z,10.60
2023-02-22T16:04:26.601Z,10.60
2023-02-22T16:07:17.342Z,10.46
2023-02-22T16:09:51.191Z,10.40
2023-02-22T16:12:22.910Z,10.30
2023-02-22T16:14:54.658Z,10.20
2023-02-22T16:18:01.966Z,10.14
2023-02-22T16:20:33.368Z,10.10
2023-02-22T16:23:22.877Z,10.00
2023-02-22T16:26:07.249Z,9.90
2023-02-22T16:28:36.220Z,9.80
2023-02-22T16:31:05.024Z,9.74
2023-02-22T16:33:34.179Z,9.70
2023-02-22T16:36:05.543Z,9.60
2023-02-22T16:38:38.644Z,9.50
2023-02-22T16:41:08.394Z,9.40
2023-02-22T16:43:37.842Z,9.34
2023-02-22T16:46:07.370Z,9.30
2023-02-22T16:48:38.828Z,9.20
2023-02-22T16:51:21.373Z,9.20
2023-02-22T16:53:51.035Z,9.10
2023-02-22T16:56:24.902Z,9.08
2023-02-22T16:58:53.850Z,9.00
2023-02-22T17:01:26.941Z,8.92
2023-02-22T17:03:55.824Z,8.90
2023-02-22T17:06:25.227Z,8.80
2023-02-22T17:08:53.909Z,8.74
2023-02-22T17:11:22.673Z,8.70
2023-02-22T17:13:52.059Z,8.70
2023-02-22T17:16:21.232Z,8.60
2023-02-22T17:18:50.356Z,8.52
2023-02-22T17:21:18.993Z,8.50
2023-02-22T17:23:47.778Z,8.40
2023-02-22T17:26:18.422Z,8.40
2023-02-22T17:28:47.090Z,8.34
2023-02-22T17:31:24.546Z,8.30
2023-02-22T17:33:55.361Z,8.28
2023-02-22T17:36:24.009Z,8.20
2023-02-22T17:38:52.702Z,8.18
2023-02-22T17:41:21.488Z,8.10
2023-02-22T17:43:50.930Z,8.10
2023-02-22T17:46:20.291Z,8.04
2023-02-22T17:48:49.210Z,8.00
2023-02-22T17:51:17.878Z,7.94
2023-02-22T17:53:46.989Z,7.90
2023-02-22T17:56:19.363Z,7.90
2023-02-22T17:58:53.364Z,7.90
2023-02-22T18:01:32.501Z,7.90
2023-02-22T18:04:03.899Z,7.90
2023-02-22T18:06:33.165Z,7.84
2023-02-22T18:09:08.740Z,7.80
2023-02-22T18:11:39.855Z,7.80
2023-02-22T18:14:10.980Z,7.70
2023-02-22T18:16:39.725Z,7.70
2023-02-22T18:19:08.579Z,7.60
2023-02-22T18:21:38.641Z,7.60
2023-02-22T18:24:08.077Z,7.58
2023-02-22T18:26:39.180Z,7.50
2023-02-22T18:29:08.022Z,7.50
2023-02-22T18:31:36.741Z,7.50
2023-02-22T18:34:05.687Z,7.50
2023-02-22T18:36:34.270Z,7.40
2023-02-22T18:39:03.613Z,7.40
2023-02-22T18:41:32.163Z,7.40
2023-02-22T18:44:01.226Z,7.40
2023-02-22T18:46:30.544Z,7.40
2023-02-22T18:48:59.623Z,7.30
2023-02-22T18:51:29.776Z,7.30
2023-02-22T18:54:01.944Z,7.30
2023-02-22T18:56:30.641Z,7.20
2023-02-22T18:59:04.232Z,7.20
2023-02-22T19:01:39.246Z,7.18
2023-02-22T19:04:12.814Z,7.12
2023-02-22T19:06:45.052Z,7.10
2023-02-22T19:09:13.826Z,7.10
2023-02-22T19:11:45.486Z,7.10
2023-02-22T19:14:14.586Z,7.00
2023-02-22T19:16:46.676Z,7.00
2023-02-22T19:19:21.082Z,7.00
2023-02-22T19:21:51.096Z,6.90
2023-02-22T19:24:19.773Z,6.90
2023-02-22T19:26:51.027Z,6.80
2023-02-22T19:29:24.214Z,6.80
2023-02-22T19:31:54.062Z,6.80
2023-02-22T19:34:24.970Z,6.70
2023-02-22T19:36:53.647Z,6.70
2023-02-22T19:41:52.765Z,6.60
2023-02-22T19:44:23.306Z,6.60
2023-02-22T19:46:55.459Z,6.50
2023-02-22T19:51:58.378Z,6.40
2023-02-22T19:54:26.953Z,6.40
2023-02-22T19:56:57.374Z,6.38
2023-02-22T19:59:25.963Z,6.30
2023-02-22T20:01:56.498Z,6.30
2023-02-22T20:04:25.366Z,6.30
2023-02-22T20:06:55.706Z,6.26
2023-02-22T20:09:33.828Z,6.20
2023-02-22T20:12:04.755Z,6.20
2023-02-22T20:14:34.468Z,6.20
2023-02-22T20:17:04.984Z,6.10
2023-02-22T20:19:33.578Z,6.10
2023-02-22T20:22:02.370Z,6.10
2023-02-22T20:24:31.166Z,6.08
2023-02-22T20:26:59.843Z,6.00
2023-02-22T20:29:31.223Z,6.00
2023-02-22T20:32:02.672Z,6.00
2023-02-22T20:34:33.596Z,5.90
2023-02-22T20:37:03.408Z,5.90
2023-02-22T20:39:32.191Z,5.90
2023-02-22T20:42:00.875Z,5.90
2023-02-22T20:44:30.316Z,5.88
2023-02-22T20:46:58.970Z,5.82
2023-02-22T20:49:28.112Z,5.82
2023-02-22T20:51:56.953Z,5.80
2023-02-22T20:54:25.639Z,5.80
2023-02-22T20:56:54.335Z,5.80
2023-02-22T20:59:23.019Z,5.80
2023-02-22T21:01:53.362Z,5.70
2023-02-22T21:04:22.494Z,5.70
2023-02-22T21:06:52.253Z,5.70
2023-02-22T21:09:21.671Z,5.70
2023-02-22T21:11:50.970Z,5.70
2023-02-22T21:14:20.180Z,5.66
2023-02-22T21:16:51.896Z,5.60
2023-02-22T21:19:27.399Z,5.60
2023-02-22T21:21:58.707Z,5.60
2023-02-22T21:24:29.774Z,5.60
2023-02-22T21:26:59.374Z,5.60
2023-02-22T21:29:29.944Z,5.60
2023-02-22T21:31:58.942Z,5.66
2023-02-22T21:34:28.451Z,5.70
2023-02-22T21:36:57.389Z,5.70
2023-02-22T21:39:28.906Z,5.70
2023-02-22T21:42:00.598Z,5.70
2023-02-22T21:44:30.820Z,5.70
2023-02-22T21:47:00.442Z,5.70
2023-02-22T21:49:29.954Z,5.70
2023-02-22T21:51:58.725Z,5.70
2023-02-22T21:54:28.366Z,5.70
2023-02-22T21:56:57.123Z,5.70
2023-02-22T21:59:25.906Z,5.70
2023-02-22T22:01:56.562Z,5.70
2023-02-22T22:04:29.487Z,5.70
2023-02-22T22:07:01.091Z,5.70
2023-02-22T22:09:33.567Z,5.70
2023-02-22T22:12:06.086Z,5.60
2023-02-22T22:14:36.400Z,5.60
2023-02-22T22:17:08.234Z,5.60
2023-02-22T22:19:39.572Z,5.60
2023-02-22T22:22:09.507Z,5.60
2023-02-22T22:24:42.366Z,5.60
2023-02-22T22:27:13.375Z,5.60
2023-02-22T22:29:43.763Z,5.60
2023-02-22T22:32:14.257Z,5.60
2023-02-22T22:34:43.794Z,5.60
2023-02-22T22:37:13.591Z,5.60
2023-02-22T22:39:42.804Z,5.60
2023-02-22T22:42:11.884Z,5.60
2023-02-22T22:44:43.430Z,5.60
2023-02-22T22:47:12.978Z,5.50
2023-02-22T22:49:42.922Z,5.50
2023-02-22T22:52:17.751Z,5.50
2023-02-22T22:54:46.737Z,5.48
2023-02-22T22:57:15.877Z,5.50
2023-02-22T22:59:45.175Z,5.50
2023-02-22T23:02:14.637Z,5.50
2023-02-22T23:04:43.810Z,5.50
2023-02-22T23:07:13.898Z,5.50
2023-02-22T23:09:43.836Z,5.50
2023-02-22T23:12:18.455Z,5.40
2023-02-22T23:14:47.376Z,5.40
2023-02-22T23:17:31.218Z,5.40
2023-02-22T23:20:00.214Z,5.44
2023-02-22T23:22:30.209Z,5.40
2023-02-22T23:25:00.528Z,5.40
2023-02-22T23:27:30.026Z,5.40
2023-02-22T23:29:59.602Z,5.40
2023-02-22T23:32:28.495Z,5.40
2023-02-22T23:34:57.931Z,5.40
2023-02-22T23:37:26.613Z,5.48
2023-02-22T23:39:55.763Z,5.48
2023-02-22T23:42:24.976Z,5.50
2023-02-22T23:44:54.377Z,5.50
2023-02-22T23:47:23.206Z,5.50
2023-02-22T23:49:52.119Z,5.50
2023-02-22T23:52:24.673Z,5.50
2023-02-22T23:54:54.319Z,5.46
2023-02-22T23:57:25.050Z,5.40
2023-02-22T23:59:54.433Z,5.40
